Terminal Aerodrome Forecast
Issued by NWS

Home | Current Version | Previous Version | Graphics & Text | Print | Product List | Glossary On
Versions: 1 2 3 4 5 6 7 8 9 10 11 12 13 14 15 16 17 18 19 20 21 22 23 24 25 26 27 28
829
FTUS43 KLOT 250259 AAA
TAFDPA
TAF AMD
KDPA 250259Z 2503/2524 01012KT P6SM BKN012 OVC020
     FM250600 35010KT P6SM SCT007 OVC012
     FM251600 35012KT P6SM BKN020
     FM252100 34010KT P6SM SCT040=

USA.gov is the U.S. government's official web portal to all federal, state and local government web resources and services.